createdAt,value
2024-03-23T00:00:15.518Z,7.40
2024-03-23T00:02:48.392Z,7.37
2024-03-23T00:05:17.903Z,7.34
2024-03-23T00:07:47.408Z,7.33
2024-03-23T00:10:16.844Z,7.33
2024-03-23T00:12:46.577Z,7.31
2024-03-23T00:15:16.078Z,7.32
2024-03-23T00:17:45.663Z,7.34
2024-03-23T00:20:15.259Z,7.35
2024-03-23T00:22:44.833Z,7.34
2024-03-23T00:25:14.275Z,7.31
2024-03-23T00:27:45.433Z,7.28
2024-03-23T00:30:14.924Z,7.28
2024-03-23T00:32:44.830Z,7.29
2024-03-23T00:35:14.285Z,7.28
2024-03-23T00:37:43.728Z,7.26
2024-03-23T00:40:14.506Z,7.27
2024-03-23T00:42:44.131Z,7.26
2024-03-23T00:45:13.592Z,7.25
2024-03-23T00:47:43.111Z,7.27
2024-03-23T00:50:12.583Z,7.27
2024-03-23T00:52:41.602Z,7.27
2024-03-23T00:55:09.978Z,7.28
2024-03-23T00:57:38.403Z,7.25
2024-03-23T01:00:07.455Z,7.22
2024-03-23T01:02:35.963Z,7.22
2024-03-23T01:05:04.505Z,7.20
2024-03-23T01:07:32.868Z,7.21
2024-03-23T01:10:01.267Z,7.22
2024-03-23T01:12:29.652Z,7.22
2024-03-23T01:14:58.002Z,7.23
2024-03-23T01:17:26.381Z,7.25
2024-03-23T01:19:54.759Z,7.23
2024-03-23T01:22:23.178Z,7.22
2024-03-23T01:24:54.631Z,7.25
2024-03-23T01:27:22.985Z,7.23
2024-03-23T01:29:53.486Z,7.25
2024-03-23T01:32:21.826Z,7.25
2024-03-23T01:34:50.357Z,7.21
2024-03-23T01:37:18.880Z,7.21
2024-03-23T01:39:48.291Z,7.23
2024-03-23T01:42:16.696Z,7.21
2024-03-23T01:44:45.140Z,7.16
2024-03-23T01:47:13.619Z,7.10
2024-03-23T01:49:42.023Z,7.05
2024-03-23T01:52:10.490Z,7.05
2024-03-23T01:54:39.862Z,6.97
2024-03-23T01:57:08.382Z,6.93
2024-03-23T01:59:36.894Z,6.88
2024-03-23T02:02:05.247Z,6.78
2024-03-23T02:04:33.682Z,6.71
2024-03-23T02:07:02.073Z,6.65
2024-03-23T02:09:30.836Z,6.57
2024-03-23T02:11:59.199Z,6.52
2024-03-23T02:14:27.639Z,6.47
2024-03-23T02:16:56.043Z,6.45
2024-03-23T02:19:24.369Z,6.41
2024-03-23T02:21:52.753Z,6.36
2024-03-23T02:24:22.243Z,6.31
2024-03-23T02:26:50.634Z,6.25
2024-03-23T02:29:20.696Z,6.20
2024-03-23T02:31:49.061Z,6.19
2024-03-23T02:34:17.659Z,6.13
2024-03-23T02:36:46.047Z,6.11
2024-03-23T02:39:16.196Z,6.07
2024-03-23T02:41:44.529Z,6.02
2024-03-23T02:44:13.155Z,6.00
2024-03-23T02:46:41.659Z,5.96
2024-03-23T02:49:10.049Z,5.95
2024-03-23T02:51:38.377Z,5.93
2024-03-23T02:54:07.246Z,5.90
2024-03-23T02:56:35.593Z,5.87
2024-03-23T02:59:03.964Z,5.82
2024-03-23T03:01:32.328Z,5.80
2024-03-23T03:04:02.189Z,5.74
2024-03-23T03:06:33.013Z,5.69
2024-03-23T03:09:01.462Z,5.65
2024-03-23T03:11:29.782Z,5.62
2024-03-23T03:13:58.350Z,5.58
2024-03-23T03:16:26.756Z,5.57
2024-03-23T03:18:55.117Z,5.56
2024-03-23T03:21:23.457Z,5.48
2024-03-23T03:23:52.072Z,5.46
2024-03-23T03:26:20.549Z,5.42
2024-03-23T03:28:49.991Z,5.38
2024-03-23T03:31:18.488Z,5.32
2024-03-23T03:33:52.542Z,5.30
2024-03-23T03:36:22.106Z,5.26
2024-03-23T03:38:50.475Z,5.21
2024-03-23T03:41:19.461Z,5.14
2024-03-23T03:43:48.036Z,5.11
2024-03-23T03:46:16.473Z,5.10
2024-03-23T03:48:46.191Z,5.06
2024-03-23T03:51:14.608Z,5.04
2024-03-23T03:53:43.236Z,5.01
2024-03-23T03:56:11.612Z,4.94
2024-03-23T03:58:41.100Z,4.87
2024-03-23T04:01:09.488Z,4.80
2024-03-23T04:03:38.010Z,4.71
2024-03-23T04:06:06.401Z,4.69
2024-03-23T04:08:34.786Z,4.65
2024-03-23T04:11:03.548Z,4.63
2024-03-23T04:13:32.139Z,4.59
2024-03-23T04:16:00.476Z,4.59
2024-03-23T04:18:28.956Z,4.60
2024-03-23T04:20:57.318Z,4.60
2024-03-23T04:23:26.026Z,4.60
2024-03-23T04:25:54.522Z,4.59
2024-03-23T04:28:23.405Z,4.59
2024-03-23T04:30:51.739Z,4.58
2024-03-23T04:33:21.513Z,4.52
2024-03-23T04:35:51.580Z,4.49
2024-03-23T04:38:20.249Z,4.49
2024-03-23T04:40:59.376Z,4.44
2024-03-23T04:43:28.763Z,4.44
2024-03-23T04:45:57.146Z,4.41
2024-03-23T04:48:25.936Z,4.39
2024-03-23T04:50:58.740Z,4.36
2024-03-23T04:53:29.570Z,4.39
2024-03-23T04:56:01.958Z,4.39
2024-03-23T04:58:30.314Z,4.38
2024-03-23T05:00:59.508Z,4.33
2024-03-23T05:03:28.101Z,4.33
2024-03-23T05:05:56.447Z,4.29
2024-03-23T05:08:24.841Z,4.28
2024-03-23T05:10:53.181Z,4.24
2024-03-23T05:13:22.681Z,4.23
2024-03-23T05:15:57.388Z,4.20
2024-03-23T05:18:27.826Z,4.13
2024-03-23T05:20:58.978Z,4.11
2024-03-23T05:23:28.498Z,4.09
2024-03-23T05:25:57.276Z,4.07
2024-03-23T05:28:25.874Z,4.03
2024-03-23T05:30:58.015Z,4.01
2024-03-23T05:33:26.587Z,4.02
2024-03-23T05:36:02.115Z,4.02
2024-03-23T05:38:30.510Z,4.02
2024-03-23T05:41:03.057Z,4.03
2024-03-23T05:43:32.162Z,4.05
2024-03-23T05:46:02.770Z,4.08
2024-03-23T05:48:31.631Z,4.08
2024-03-23T05:51:00.153Z,4.13
2024-03-23T05:53:31.030Z,4.18
2024-03-23T05:56:07.212Z,4.25
2024-03-23T05:58:35.662Z,4.29
2024-03-23T06:01:04.650Z,4.32
2024-03-23T06:03:33.211Z,4.40
2024-03-23T06:06:01.628Z,4.44
2024-03-23T06:08:29.984Z,4.47
2024-03-23T06:10:58.283Z,4.49
2024-03-23T06:13:31.007Z,4.51
2024-03-23T06:16:00.293Z,4.49
2024-03-23T06:18:29.074Z,4.46
2024-03-23T06:20:57.408Z,4.44
2024-03-23T06:23:25.934Z,4.43
2024-03-23T06:25:54.299Z,4.44
2024-03-23T06:28:22.728Z,4.47
2024-03-23T06:30:51.071Z,4.48
2024-03-23T06:33:19.545Z,4.50
2024-03-23T06:35:53.381Z,4.58
2024-03-23T06:38:21.713Z,4.61
2024-03-23T06:40:51.918Z,4.65
2024-03-23T06:43:20.483Z,4.70
2024-03-23T06:45:55.716Z,4.76
2024-03-23T06:48:24.627Z,4.81
2024-03-23T06:50:58.242Z,4.88
2024-03-23T06:53:26.703Z,4.96
2024-03-23T06:55:55.897Z,5.04
2024-03-23T06:58:26.165Z,5.13
2024-03-23T07:00:55.009Z,5.23
2024-03-23T07:03:25.043Z,5.32
2024-03-23T07:05:53.349Z,5.41
2024-03-23T07:08:23.462Z,5.47
2024-03-23T07:10:51.886Z,5.54
2024-03-23T07:13:20.675Z,5.65
2024-03-23T07:15:56.775Z,5.73
2024-03-23T07:18:27.512Z,5.82
2024-03-23T07:20:59.481Z,5.94
2024-03-23T07:23:28.066Z,6.05
2024-03-23T07:26:05.766Z,6.14
2024-03-23T07:28:34.832Z,6.23
2024-03-23T07:31:07.069Z,6.32
2024-03-23T07:33:35.655Z,6.43
2024-03-23T07:36:04.503Z,6.49
2024-03-23T07:38:32.997Z,6.57
2024-03-23T07:41:08.467Z,6.65
2024-03-23T07:43:44.002Z,6.81
2024-03-23T07:46:13.195Z,6.94
2024-03-23T07:48:44.919Z,7.02
2024-03-23T07:51:24.140Z,7.03
2024-03-23T07:53:53.840Z,7.10
2024-03-23T07:56:24.512Z,7.12
2024-03-23T07:58:52.923Z,7.17
2024-03-23T08:01:24.835Z,7.20
2024-03-23T08:03:54.412Z,7.28
2024-03-23T08:06:23.741Z,7.42
2024-03-23T08:09:03.191Z,7.45
2024-03-23T08:11:35.666Z,7.39
2024-03-23T08:14:05.533Z,7.57
2024-03-23T08:16:35.255Z,7.65
2024-03-23T08:19:05.795Z,7.71
2024-03-23T08:21:36.847Z,7.81
2024-03-23T08:24:06.478Z,7.76
2024-03-23T08:26:35.150Z,7.78
2024-03-23T08:29:03.515Z,7.79
2024-03-23T08:31:32.073Z,7.88
2024-03-23T08:34:00.541Z,7.89
2024-03-23T08:36:29.334Z,8.04
2024-03-23T08:38:57.683Z,8.06
2024-03-23T08:41:26.010Z,7.97
2024-03-23T08:43:54.359Z,7.99
2024-03-23T08:46:22.773Z,8.00
2024-03-23T08:48:51.303Z,8.20
2024-03-23T08:51:19.801Z,8.38
2024-03-23T08:53:48.294Z,8.58
2024-03-23T08:56:17.121Z,8.69
2024-03-23T08:58:45.523Z,8.81
2024-03-23T09:01:15.221Z,8.93
2024-03-23T09:03:44.097Z,9.00
2024-03-23T09:06:15.968Z,9.25
2024-03-23T09:08:44.505Z,9.40
2024-03-23T09:11:15.108Z,9.57
2024-03-23T09:13:43.484Z,9.48
2024-03-23T09:16:11.837Z,9.40
2024-03-23T09:18:40.663Z,9.16
2024-03-23T09:21:15.851Z,8.81
2024-03-23T09:23:47.496Z,8.34
2024-03-23T09:26:15.851Z,8.02
2024-03-23T09:28:44.264Z,7.75
2024-03-23T09:31:15.620Z,7.53
2024-03-23T09:33:44.371Z,7.39
2024-03-23T09:36:12.862Z,7.21
2024-03-23T09:38:42.621Z,7.15
2024-03-23T09:41:11.460Z,7.20
2024-03-23T09:43:39.931Z,7.17
2024-03-23T09:46:08.538Z,7.09
2024-03-23T09:48:37.851Z,6.77
2024-03-23T09:51:06.269Z,6.40
2024-03-23T09:53:34.745Z,6.20
2024-03-23T09:56:03.066Z,6.13
2024-03-23T09:58:33.247Z,6.13
2024-03-23T10:01:01.601Z,6.42
2024-03-23T10:03:30.443Z,6.84
2024-03-23T10:06:06.188Z,7.24
2024-03-23T10:08:37.993Z,7.46
2024-03-23T10:11:17.911Z,7.85
2024-03-23T10:13:47.922Z,8.15
2024-03-23T10:16:25.785Z,8.54
2024-03-23T10:18:54.113Z,8.94
2024-03-23T10:21:22.501Z,9.09
2024-03-23T10:23:52.423Z,9.15
2024-03-23T10:26:26.860Z,8.61
2024-03-23T10:29:02.272Z,8.46
2024-03-23T10:31:31.074Z,8.52
2024-03-23T10:34:01.971Z,8.73
2024-03-23T10:36:31.648Z,9.05
2024-03-23T10:39:01.179Z,9.07
2024-03-23T10:41:34.037Z,9.29
2024-03-23T10:44:03.936Z,9.36
2024-03-23T10:46:33.024Z,9.61
2024-03-23T10:49:01.503Z,9.70
2024-03-23T10:51:29.860Z,9.38
2024-03-23T10:54:00.560Z,9.11
2024-03-23T10:56:34.891Z,8.44
2024-03-23T10:59:05.456Z,7.95
2024-03-23T11:01:33.762Z,7.71
2024-03-23T11:04:06.083Z,7.53
2024-03-23T11:06:41.669Z,7.46
2024-03-23T11:09:37.655Z,7.86
2024-03-23T11:12:34.193Z,8.44
2024-03-23T11:15:13.883Z,8.75
2024-03-23T11:17:42.502Z,9.31
2024-03-23T11:20:13.046Z,9.59
2024-03-23T11:22:45.977Z,9.55
2024-03-23T11:25:27.234Z,9.30
2024-03-23T11:28:00.476Z,9.15
2024-03-23T11:30:30.506Z,9.10
2024-03-23T11:33:01.913Z,9.49
2024-03-23T11:35:38.895Z,9.70
2024-03-23T11:38:19.195Z,9.62
2024-03-23T11:40:49.480Z,9.47
2024-03-23T11:43:18.875Z,9.74
2024-03-23T11:45:52.245Z,9.97
2024-03-23T11:48:25.172Z,10.00
2024-03-23T11:51:00.802Z,10.37
2024-03-23T11:53:34.326Z,10.75
2024-03-23T11:56:03.142Z,10.58
2024-03-23T11:58:31.988Z,10.21
2024-03-23T12:01:12.534Z,9.76
2024-03-23T12:03:46.375Z,9.69
2024-03-23T12:06:24.263Z,10.00
2024-03-23T12:08:52.671Z,10.17
2024-03-23T12:11:23.476Z,9.84
2024-03-23T12:13:54.487Z,9.59
2024-03-23T12:16:23.158Z,9.39
2024-03-23T12:18:52.254Z,9.02
2024-03-23T12:21:25.632Z,8.99
2024-03-23T12:23:54.333Z,9.51
2024-03-23T12:26:25.379Z,10.02
2024-03-23T12:28:58.291Z,10.33
2024-03-23T12:31:34.147Z,10.41
2024-03-23T12:34:09.922Z,10.21
2024-03-23T12:36:44.001Z,10.13
2024-03-23T12:39:12.365Z,10.07
2024-03-23T12:41:49.060Z,9.73
2024-03-23T12:44:23.449Z,9.47
2024-03-23T12:46:51.782Z,9.55
2024-03-23T12:49:20.130Z,9.55
2024-03-23T12:52:00.525Z,9.43
2024-03-23T12:54:29.254Z,9.30
2024-03-23T12:56:57.630Z,9.54
2024-03-23T12:59:25.936Z,10.06
2024-03-23T13:01:54.277Z,10.27
2024-03-23T13:04:23.261Z,10.46
2024-03-23T13:06:51.624Z,10.75
2024-03-23T13:09:20.023Z,10.38
2024-03-23T13:11:48.397Z,10.00
2024-03-23T13:14:19.780Z,9.63
2024-03-23T13:16:48.173Z,9.65
2024-03-23T13:19:16.552Z,10.09
2024-03-23T13:21:49.912Z,10.08
2024-03-23T13:24:18.494Z,9.63
2024-03-23T13:26:46.909Z,9.10
2024-03-23T13:29:15.454Z,8.46
2024-03-23T13:31:43.757Z,7.86
2024-03-23T13:34:12.227Z,7.56
2024-03-23T13:36:40.623Z,7.60
2024-03-23T13:39:15.091Z,7.72
2024-03-23T13:41:47.887Z,7.93
2024-03-23T13:44:17.103Z,8.38
2024-03-23T13:46:45.614Z,8.90
2024-03-23T13:49:35.951Z,9.59
2024-03-23T13:52:04.402Z,9.62
2024-03-23T13:54:33.261Z,9.32
2024-03-23T13:57:01.670Z,9.16
2024-03-23T13:59:30.021Z,9.06
2024-03-23T14:01:58.986Z,9.04
2024-03-23T14:04:27.396Z,9.36
2024-03-23T14:06:56.072Z,9.73
2024-03-23T14:09:26.886Z,10.08
2024-03-23T14:11:55.257Z,10.55
2024-03-23T14:14:23.758Z,10.99
2024-03-23T14:16:52.134Z,11.16
2024-03-23T14:19:20.991Z,11.59
2024-03-23T14:21:49.495Z,12.00
2024-03-23T14:24:18.054Z,11.39
2024-03-23T14:26:46.383Z,10.78
2024-03-23T14:29:14.806Z,10.13
2024-03-23T14:31:43.157Z,9.87
2024-03-23T14:34:11.744Z,9.91
2024-03-23T14:36:40.057Z,9.66
2024-03-23T14:39:08.504Z,9.54
2024-03-23T14:41:36.816Z,9.54
2024-03-23T14:44:05.619Z,9.72
2024-03-23T14:46:34.761Z,9.99
2024-03-23T14:49:03.125Z,10.42
2024-03-23T14:51:31.501Z,10.36
2024-03-23T14:54:00.095Z,10.15
2024-03-23T14:56:28.513Z,9.90
2024-03-23T14:58:57.427Z,9.64
2024-03-23T15:01:25.824Z,9.46
2024-03-23T15:03:54.734Z,9.89
2024-03-23T15:06:23.096Z,10.57
2024-03-23T15:08:51.518Z,10.64
2024-03-23T15:11:20.981Z,10.72
2024-03-23T15:13:52.165Z,10.28
2024-03-23T15:16:23.504Z,10.10
2024-03-23T15:18:51.907Z,10.03
2024-03-23T15:21:23.496Z,9.90
2024-03-23T15:23:52.100Z,9.63
2024-03-23T15:26:20.664Z,9.75
2024-03-23T15:28:57.991Z,9.72
2024-03-23T15:31:27.090Z,9.75
2024-03-23T15:33:55.544Z,9.62
2024-03-23T15:36:23.910Z,9.48
2024-03-23T15:38:52.244Z,9.42
2024-03-23T15:41:20.864Z,9.21
2024-03-23T15:43:50.321Z,9.15
2024-03-23T15:46:20.250Z,9.09
2024-03-23T15:48:52.126Z,9.18
2024-03-23T15:51:20.509Z,9.24
2024-03-23T15:53:49.445Z,9.46
2024-03-23T15:56:17.789Z,9.56
2024-03-23T15:58:47.173Z,9.40
2024-03-23T16:01:15.564Z,9.19
2024-03-23T16:03:44.211Z,9.19
2024-03-23T16:06:12.564Z,9.42
2024-03-23T16:08:41.310Z,9.63
2024-03-23T16:11:11.837Z,9.67
2024-03-23T16:13:41.901Z,9.65
2024-03-23T16:16:11.236Z,9.78
2024-03-23T16:18:41.028Z,9.79
2024-03-23T16:21:12.064Z,9.63
2024-03-23T16:23:42.741Z,9.21
2024-03-23T16:26:13.435Z,8.98
2024-03-23T16:28:42.266Z,8.82
2024-03-23T16:31:11.456Z,8.78
2024-03-23T16:33:40.643Z,8.69
2024-03-23T16:36:10.915Z,8.64
2024-03-23T16:38:44.465Z,8.28
2024-03-23T16:41:17.038Z,7.57
2024-03-23T16:43:46.446Z,7.16
2024-03-23T16:46:16.958Z,6.84
2024-03-23T16:48:46.726Z,6.70
2024-03-23T16:51:17.293Z,6.67
2024-03-23T16:53:51.225Z,6.52
2024-03-23T16:56:19.664Z,6.48
2024-03-23T16:58:50.268Z,6.47
2024-03-23T17:01:22.067Z,6.47
2024-03-23T17:03:54.028Z,6.47
2024-03-23T17:06:25.250Z,6.35
2024-03-23T17:08:54.218Z,6.19
2024-03-23T17:11:23.005Z,6.04
2024-03-23T17:13:57.502Z,5.96
2024-03-23T17:16:31.438Z,5.85
2024-03-23T17:19:00.171Z,5.81
2024-03-23T17:21:28.843Z,5.86
2024-03-23T17:23:58.523Z,5.84
2024-03-23T17:26:29.486Z,5.76
2024-03-23T17:28:57.998Z,5.76
2024-03-23T17:31:26.380Z,5.81
2024-03-23T17:33:58.919Z,5.83
2024-03-23T17:36:31.122Z,5.75
2024-03-23T17:39:02.592Z,5.63
2024-03-23T17:41:33.198Z,5.62
2024-03-23T17:44:01.474Z,5.54
2024-03-23T17:46:30.018Z,5.39
2024-03-23T17:49:03.541Z,5.38
2024-03-23T17:51:32.151Z,5.41
2024-03-23T17:54:00.737Z,5.43
2024-03-23T17:56:29.075Z,5.45
2024-03-23T17:58:57.526Z,5.46
2024-03-23T18:01:28.256Z,5.44
2024-03-23T18:04:00.068Z,5.42
2024-03-23T18:06:28.452Z,5.34
2024-03-23T18:08:56.885Z,5.27
2024-03-23T18:11:26.262Z,5.23
2024-03-23T18:13:55.062Z,5.19
2024-03-23T18:16:26.098Z,5.14
2024-03-23T18:18:54.553Z,5.13
2024-03-23T18:21:22.944Z,5.16
2024-03-23T18:23:51.660Z,5.15
2024-03-23T18:26:22.494Z,5.17
2024-03-23T18:28:52.781Z,5.15
2024-03-23T18:31:21.230Z,5.18
2024-03-23T18:33:49.783Z,5.16
2024-03-23T18:36:18.223Z,5.18
2024-03-23T18:38:46.935Z,5.18
2024-03-23T18:41:15.339Z,5.19
2024-03-23T18:43:47.238Z,5.18
2024-03-23T18:46:15.588Z,5.18
2024-03-23T18:48:44.642Z,5.21
2024-03-23T18:51:13.205Z,5.21
2024-03-23T18:53:41.624Z,5.21
2024-03-23T18:56:10.964Z,5.15
2024-03-23T18:58:39.391Z,5.10
2024-03-23T19:01:09.956Z,5.08
2024-03-23T19:03:38.526Z,5.08
2024-03-23T19:06:07.225Z,5.11
2024-03-23T19:08:35.553Z,5.14
2024-03-23T19:11:04.548Z,5.14
2024-03-23T19:13:33.042Z,5.13
2024-03-23T19:16:07.415Z,5.14
2024-03-23T19:18:35.836Z,5.14
2024-03-23T19:21:04.256Z,5.14
2024-03-23T19:23:35.287Z,5.14
2024-03-23T19:26:05.111Z,5.14
2024-03-23T19:28:33.418Z,5.13
2024-03-23T19:31:07.357Z,5.10
2024-03-23T19:33:36.206Z,5.08
2024-03-23T19:36:04.629Z,5.06
2024-03-23T19:38:32.941Z,5.03
2024-03-23T19:41:01.392Z,4.99
2024-03-23T19:43:31.198Z,4.97
2024-03-23T19:46:04.208Z,4.96
2024-03-23T19:48:32.572Z,4.93
2024-03-23T19:51:02.064Z,4.89
2024-03-23T19:53:30.453Z,4.84
2024-03-23T19:56:01.844Z,4.83
2024-03-23T19:58:30.360Z,4.78
2024-03-23T20:00:58.790Z,4.75
2024-03-23T20:03:27.638Z,4.71
2024-03-23T20:05:59.725Z,4.69
2024-03-23T20:08:28.157Z,4.66
2024-03-23T20:10:56.490Z,4.66
2024-03-23T20:13:25.725Z,4.65
2024-03-23T20:15:57.010Z,4.61
2024-03-23T20:18:29.419Z,4.59
2024-03-23T20:20:59.644Z,4.57
2024-03-23T20:23:27.985Z,4.55
2024-03-23T20:25:58.558Z,4.54
2024-03-23T20:28:29.595Z,4.51
2024-03-23T20:30:59.694Z,4.49
2024-03-23T20:33:28.277Z,4.49
2024-03-23T20:35:57.407Z,4.50
2024-03-23T20:38:25.779Z,4.50
2024-03-23T20:40:55.205Z,4.50
2024-03-23T20:43:24.805Z,4.51
2024-03-23T20:46:04.176Z,4.49
2024-03-23T20:48:34.401Z,4.49
2024-03-23T20:51:04.618Z,4.50
2024-03-23T20:53:33.302Z,4.50
2024-03-23T20:56:02.647Z,4.50
2024-03-23T20:58:32.544Z,4.49
2024-03-23T21:01:05.262Z,4.47
2024-03-23T21:03:36.696Z,4.45
2024-03-23T21:06:07.663Z,4.46
2024-03-23T21:08:36.829Z,4.46
2024-03-23T21:11:05.356Z,4.45
2024-03-23T21:13:33.768Z,4.45
2024-03-23T21:16:02.946Z,4.45
2024-03-23T21:18:31.768Z,4.46
2024-03-23T21:21:03.901Z,4.44
2024-03-23T21:23:33.520Z,4.44
2024-03-23T21:26:03.514Z,4.44
2024-03-23T21:28:32.134Z,4.44
2024-03-23T21:31:00.603Z,4.42
2024-03-23T21:33:28.973Z,4.41
2024-03-23T21:36:00.079Z,4.41
2024-03-23T21:38:28.930Z,4.40
2024-03-23T21:41:01.353Z,4.40
2024-03-23T21:43:31.644Z,4.39
2024-03-23T21:46:05.305Z,4.41
2024-03-23T21:48:37.391Z,4.41
2024-03-23T21:51:07.691Z,4.41
2024-03-23T21:53:36.361Z,4.41
2024-03-23T21:56:05.189Z,4.40
2024-03-23T21:58:33.780Z,4.37
2024-03-23T22:01:07.548Z,4.37
2024-03-23T22:03:36.132Z,4.38
2024-03-23T22:06:04.592Z,4.38
2024-03-23T22:08:32.928Z,4.39
2024-03-23T22:11:01.236Z,4.39
2024-03-23T22:13:29.818Z,4.43
2024-03-23T22:16:02.220Z,4.43
2024-03-23T22:18:31.050Z,4.45
2024-03-23T22:21:01.383Z,4.46
2024-03-23T22:23:31.289Z,4.44
2024-03-23T22:26:02.673Z,4.46
2024-03-23T22:28:31.091Z,4.46
2024-03-23T22:31:01.711Z,4.47
2024-03-23T22:33:30.681Z,4.47
2024-03-23T22:36:00.298Z,4.47
2024-03-23T22:38:29.227Z,4.47
2024-03-23T22:41:05.779Z,4.47
2024-03-23T22:43:35.548Z,4.46
2024-03-23T22:46:06.467Z,4.46
2024-03-23T22:48:36.455Z,4.45
2024-03-23T22:51:07.248Z,4.45
2024-03-23T22:53:36.366Z,4.43
2024-03-23T22:56:04.824Z,4.44
2024-03-23T22:58:35.033Z,4.43
2024-03-23T23:01:08.538Z,4.44
2024-03-23T23:03:37.208Z,4.44
2024-03-23T23:06:06.451Z,4.44
2024-03-23T23:08:35.236Z,4.43
2024-03-23T23:11:05.851Z,4.43
2024-03-23T23:13:37.442Z,4.43
2024-03-23T23:16:06.043Z,4.43
2024-03-23T23:18:34.444Z,4.43
2024-03-23T23:21:03.010Z,4.45
2024-03-23T23:23:31.568Z,4.45
2024-03-23T23:26:00.838Z,4.46
2024-03-23T23:28:29.327Z,4.48
2024-03-23T23:31:02.181Z,4.51
2024-03-23T23:33:31.149Z,4.56
2024-03-23T23:35:59.724Z,4.62
2024-03-23T23:38:29.286Z,4.66
2024-03-23T23:40:58.007Z,4.70
2024-03-23T23:43:26.771Z,4.72
2024-03-23T23:45:56.249Z,4.75
2024-03-23T23:48:24.632Z,4.77
2024-03-23T23:50:52.974Z,4.79
2024-03-23T23:53:21.570Z,4.80
2024-03-23T23:55:49.875Z,4.82
2024-03-23T23:58:18.235Z,4.82
